createdAt,value
2023-07-01T00:01:36.740Z,16.19
2023-07-01T00:04:05.299Z,16.17
2023-07-01T00:06:33.868Z,16.16
2023-07-01T00:09:11.701Z,16.15
2023-07-01T00:11:40.410Z,16.14
2023-07-01T00:14:17.865Z,16.09
2023-07-01T00:16:46.537Z,16.06
2023-07-01T00:19:15.355Z,16.03
2023-07-01T00:21:43.894Z,16.02
2023-07-01T00:24:12.351Z,16.01
2023-07-01T00:26:52.977Z,16.01
2023-07-01T00:29:21.551Z,16.01
2023-07-01T00:31:49.895Z,15.98
2023-07-01T00:34:21.633Z,15.97
2023-07-01T00:36:50.733Z,15.96
2023-07-01T00:39:19.010Z,15.95
2023-07-01T00:41:54.204Z,15.93
2023-07-01T00:44:23.321Z,15.93
2023-07-01T00:46:55.352Z,15.90
2023-07-01T00:49:24.139Z,15.84
2023-07-01T00:51:52.875Z,15.80
2023-07-01T00:54:22.266Z,15.80
2023-07-01T00:57:00.652Z,15.83
2023-07-01T00:59:38.470Z,15.82
2023-07-01T01:02:17.356Z,15.78
2023-07-01T01:05:20.158Z,15.76
2023-07-01T01:08:00.810Z,15.72
2023-07-01T01:10:32.668Z,15.72
2023-07-01T01:13:05.838Z,15.72
2023-07-01T01:15:55.294Z,15.73
2023-07-01T01:18:25.255Z,15.72
2023-07-01T01:20:53.945Z,15.71
2023-07-01T01:23:33.972Z,15.71
2023-07-01T01:26:14.438Z,15.71
2023-07-01T01:28:55.922Z,15.69
2023-07-01T01:31:24.453Z,15.62
2023-07-01T01:33:53.197Z,15.60
2023-07-01T01:36:42.528Z,15.60
2023-07-01T01:39:15.520Z,15.60
2023-07-01T01:41:59.351Z,15.59
2023-07-01T01:44:48.414Z,15.53
2023-07-01T01:47:28.505Z,15.51
2023-07-01T01:50:22.688Z,15.51
2023-07-01T01:53:09.739Z,15.47
2023-07-01T01:56:03.185Z,15.39
2023-07-01T01:58:52.302Z,15.37
2023-07-01T02:01:30.394Z,15.36
2023-07-01T02:03:59.528Z,15.36
2023-07-01T02:06:28.638Z,15.34
2023-07-01T02:08:57.759Z,15.33
2023-07-01T02:11:26.133Z,15.33
2023-07-01T02:13:58.225Z,15.35
2023-07-01T02:16:47.029Z,15.35
2023-07-01T02:19:16.949Z,15.34
2023-07-01T02:21:51.071Z,15.31
2023-07-01T02:24:22.296Z,15.30
2023-07-01T02:27:14.090Z,15.31
2023-07-01T02:29:45.833Z,15.33
2023-07-01T02:32:17.216Z,15.34
2023-07-01T02:34:48.220Z,15.34
2023-07-01T02:37:19.153Z,15.35
2023-07-01T02:39:48.315Z,15.33
2023-07-01T02:42:20.965Z,15.31
2023-07-01T02:44:55.946Z,15.27
2023-07-01T02:47:33.452Z,15.25
2023-07-01T02:50:02.279Z,15.20
2023-07-01T02:52:32.037Z,15.15
2023-07-01T02:55:02.428Z,15.12
2023-07-01T02:57:30.875Z,15.09
2023-07-01T03:00:00.316Z,15.07
2023-07-01T03:02:30.036Z,15.05
2023-07-01T03:05:01.614Z,15.06
2023-07-01T03:07:30.043Z,15.05
2023-07-01T03:09:58.305Z,15.01
2023-07-01T03:12:27.401Z,14.97
2023-07-01T03:14:56.318Z,14.94
2023-07-01T03:17:26.286Z,14.93
2023-07-01T03:19:54.884Z,14.92
2023-07-01T03:22:26.365Z,14.92
2023-07-01T03:24:54.571Z,14.93
2023-07-01T03:27:23.365Z,14.91
2023-07-01T03:29:51.767Z,14.90
2023-07-01T03:32:20.512Z,14.90
2023-07-01T03:34:49.008Z,14.92
2023-07-01T03:37:18.030Z,14.95
2023-07-01T03:39:46.420Z,14.98
2023-07-01T03:42:14.838Z,15.05
2023-07-01T03:44:43.598Z,15.06
2023-07-01T03:47:20.484Z,15.05
2023-07-01T03:49:49.110Z,15.04
2023-07-01T03:52:17.633Z,15.04
2023-07-01T03:54:48.756Z,15.04
2023-07-01T03:57:17.107Z,15.07
2023-07-01T03:59:45.818Z,15.11
2023-07-01T04:02:14.235Z,15.15
2023-07-01T04:04:43.512Z,15.16
2023-07-01T04:07:14.975Z,15.18
2023-07-01T04:09:43.366Z,15.19
2023-07-01T04:12:12.386Z,15.21
2023-07-01T04:14:40.827Z,15.25
2023-07-01T04:17:09.597Z,15.30
2023-07-01T04:19:38.516Z,15.35
2023-07-01T04:22:08.631Z,15.38
2023-07-01T04:24:36.981Z,15.37
2023-07-01T04:27:05.631Z,15.36
2023-07-01T04:29:47.216Z,15.36
2023-07-01T04:32:16.132Z,15.38
2023-07-01T04:34:46.195Z,15.35
2023-07-01T04:37:14.599Z,15.31
2023-07-01T04:39:51.985Z,15.32
2023-07-01T04:42:23.100Z,15.32
2023-07-01T04:44:57.200Z,15.31
2023-07-01T04:47:26.033Z,15.34
2023-07-01T04:49:57.155Z,15.36
2023-07-01T04:52:28.970Z,15.39
2023-07-01T04:54:58.081Z,15.41
2023-07-01T04:57:26.295Z,15.40
2023-07-01T05:00:15.550Z,15.40
2023-07-01T05:02:44.337Z,15.42
2023-07-01T05:05:16.883Z,15.44
2023-07-01T05:07:46.442Z,15.52
2023-07-01T05:10:15.247Z,15.55
2023-07-01T05:12:52.710Z,15.66
2023-07-01T05:15:24.580Z,15.79
2023-07-01T05:17:53.455Z,15.85
2023-07-01T05:20:22.015Z,15.88
2023-07-01T05:22:50.253Z,15.88
2023-07-01T05:25:19.524Z,15.86
2023-07-01T05:27:47.904Z,15.91
2023-07-01T05:30:16.499Z,16.04
2023-07-01T05:32:45.758Z,16.10
2023-07-01T05:35:16.519Z,16.12
2023-07-01T05:37:53.079Z,16.16
2023-07-01T05:40:22.008Z,16.17
2023-07-01T05:42:54.208Z,16.27
2023-07-01T05:45:22.747Z,16.39
2023-07-01T05:47:52.935Z,16.37
2023-07-01T05:50:24.571Z,16.46
2023-07-01T05:52:53.595Z,16.81
2023-07-01T05:55:24.621Z,17.34
2023-07-01T05:57:55.709Z,17.37
2023-07-01T06:00:24.084Z,17.25
2023-07-01T06:02:52.844Z,16.92
2023-07-01T06:05:24.240Z,16.78
2023-07-01T06:07:52.606Z,16.73
2023-07-01T06:10:20.839Z,16.78
2023-07-01T06:12:49.243Z,16.83
2023-07-01T06:15:17.605Z,16.84
2023-07-01T06:17:49.378Z,16.86
2023-07-01T06:20:18.147Z,16.85
2023-07-01T06:22:48.272Z,16.89
2023-07-01T06:25:17.242Z,16.97
2023-07-01T06:27:45.443Z,17.09
2023-07-01T06:30:14.025Z,17.08
2023-07-01T06:32:43.238Z,17.05
2023-07-01T06:35:13.879Z,17.03
2023-07-01T06:37:42.363Z,17.04
2023-07-01T06:40:11.252Z,17.07
2023-07-01T06:42:40.127Z,17.14
2023-07-01T06:45:08.958Z,17.23
2023-07-01T06:47:37.308Z,17.32
2023-07-01T06:50:06.238Z,17.40
2023-07-01T06:52:34.509Z,17.73
2023-07-01T06:55:04.301Z,18.05
2023-07-01T06:57:32.710Z,18.44
2023-07-01T07:00:02.315Z,18.53
2023-07-01T07:02:30.585Z,18.49
2023-07-01T07:04:59.125Z,18.11
2023-07-01T07:07:27.861Z,17.86
2023-07-01T07:09:56.123Z,17.76
2023-07-01T07:12:24.378Z,17.83
2023-07-01T07:14:53.280Z,17.95
2023-07-01T07:17:21.659Z,18.13
2023-07-01T07:19:49.960Z,18.44
2023-07-01T07:22:18.879Z,18.54
2023-07-01T07:24:47.132Z,18.27
2023-07-01T07:27:15.526Z,18.13
2023-07-01T07:29:44.137Z,18.21
2023-07-01T07:32:12.511Z,18.30
2023-07-01T07:34:40.969Z,18.55
2023-07-01T07:37:09.733Z,18.91
2023-07-01T07:39:38.368Z,18.95
2023-07-01T07:42:06.922Z,18.87
2023-07-01T07:44:36.514Z,18.88
2023-07-01T07:47:05.379Z,18.82
2023-07-01T07:49:34.023Z,18.89
2023-07-01T07:52:02.870Z,19.01
2023-07-01T07:54:41.748Z,19.21
2023-07-01T07:57:09.964Z,19.41
2023-07-01T07:59:38.614Z,19.41
2023-07-01T08:02:07.278Z,19.12
2023-07-01T08:04:39.712Z,18.93
2023-07-01T08:07:09.299Z,18.83
2023-07-01T08:09:38.878Z,18.80
2023-07-01T08:12:08.031Z,18.75
2023-07-01T08:14:36.376Z,18.70
2023-07-01T08:17:05.261Z,18.49
2023-07-01T08:19:34.932Z,18.22
2023-07-01T08:22:03.681Z,18.13
2023-07-01T08:24:31.995Z,18.03
2023-07-01T08:27:01.090Z,18.00
2023-07-01T08:30:26.390Z,18.00
2023-07-01T08:32:56.174Z,18.03
2023-07-01T08:35:24.635Z,18.13
2023-07-01T08:37:53.126Z,18.15
2023-07-01T08:40:21.596Z,18.06
2023-07-01T08:42:52.575Z,17.92
2023-07-01T08:45:23.339Z,17.80
2023-07-01T08:47:54.876Z,17.75
2023-07-01T08:50:24.391Z,17.77
2023-07-01T08:53:04.497Z,17.87
2023-07-01T08:55:33.957Z,18.16
2023-07-01T08:58:04.049Z,18.44
2023-07-01T09:00:33.054Z,18.49
2023-07-01T09:03:04.446Z,18.39
2023-07-01T09:05:33.416Z,18.29
2023-07-01T09:08:01.679Z,18.19
2023-07-01T09:10:30.376Z,18.12
2023-07-01T09:13:14.340Z,18.03
2023-07-01T09:16:06.473Z,18.07
2023-07-01T09:18:36.188Z,18.22
2023-07-01T09:21:19.706Z,18.38
2023-07-01T09:23:49.011Z,18.45
2023-07-01T09:26:21.284Z,18.50
2023-07-01T09:28:53.608Z,18.50
2023-07-01T09:31:22.505Z,18.52
2023-07-01T09:34:01.509Z,18.52
2023-07-01T09:36:41.706Z,18.60
2023-07-01T09:39:10.306Z,18.75
2023-07-01T09:41:39.101Z,18.74
2023-07-01T09:44:20.373Z,18.79
2023-07-01T09:46:50.616Z,18.82
2023-07-01T09:49:22.701Z,18.93
2023-07-01T09:51:53.033Z,19.27
2023-07-01T09:54:27.938Z,19.49
2023-07-01T09:56:59.375Z,19.48
2023-07-01T09:59:28.970Z,19.57
2023-07-01T10:01:59.103Z,19.75
2023-07-01T10:04:30.856Z,19.89
2023-07-01T10:07:00.356Z,19.94
2023-07-01T10:09:30.495Z,19.88
2023-07-01T10:12:00.784Z,19.86
2023-07-01T10:14:33.769Z,19.95
2023-07-01T10:17:02.840Z,20.16
2023-07-01T10:19:36.457Z,20.51
2023-07-01T10:22:29.126Z,20.61
2023-07-01T10:25:08.406Z,20.60
2023-07-01T10:27:45.616Z,20.66
2023-07-01T10:30:15.270Z,20.68
2023-07-01T10:32:45.055Z,20.67
2023-07-01T10:35:17.593Z,20.59
2023-07-01T10:38:28.601Z,20.93
2023-07-01T10:40:57.528Z,21.41
2023-07-01T10:43:32.299Z,21.61
2023-07-01T10:46:25.873Z,21.64
2023-07-01T10:49:03.779Z,21.38
2023-07-01T10:51:47.637Z,20.97
2023-07-01T10:54:30.679Z,21.11
2023-07-01T10:57:17.458Z,21.45
2023-07-01T10:59:46.294Z,21.50
2023-07-01T11:02:39.310Z,21.54
2023-07-01T11:05:10.130Z,21.82
2023-07-01T11:07:43.088Z,22.18
2023-07-01T11:10:11.802Z,22.25
2023-07-01T11:12:40.822Z,22.15
2023-07-01T11:15:09.836Z,22.05
2023-07-01T11:17:52.556Z,22.10
2023-07-01T11:20:20.930Z,22.50
2023-07-01T11:22:50.811Z,22.88
2023-07-01T11:25:19.160Z,22.98
2023-07-01T11:27:47.469Z,22.87
2023-07-01T11:30:32.005Z,22.53
2023-07-01T11:33:13.995Z,22.33
2023-07-01T11:35:53.230Z,22.44
2023-07-01T11:38:27.864Z,22.47
2023-07-01T11:40:56.717Z,22.79
2023-07-01T11:43:25.485Z,22.92
2023-07-01T11:45:55.551Z,22.97
2023-07-01T11:48:32.361Z,22.71
2023-07-01T11:51:00.910Z,22.70
2023-07-01T11:53:39.045Z,22.74
2023-07-01T11:56:17.961Z,22.94
2023-07-01T12:01:42.463Z,23.41
2023-07-01T12:04:31.426Z,23.39
2023-07-01T12:07:08.087Z,23.53
2023-07-01T12:09:37.571Z,23.55
2023-07-01T12:12:06.477Z,23.63
2023-07-01T12:14:35.214Z,23.68
2023-07-01T12:17:03.630Z,23.66
2023-07-01T12:19:32.395Z,23.56
2023-07-01T12:22:01.533Z,23.60
2023-07-01T12:24:34.082Z,23.64
2023-07-01T12:27:04.882Z,23.70
2023-07-01T12:29:33.282Z,23.85
2023-07-01T12:32:02.134Z,23.90
2023-07-01T12:34:30.407Z,23.80
2023-07-01T12:36:59.531Z,23.92
2023-07-01T12:39:28.574Z,23.98
2023-07-01T12:41:59.769Z,23.74
2023-07-01T12:44:37.279Z,23.47
2023-07-01T12:47:07.617Z,23.17
2023-07-01T12:49:38.609Z,23.27
2023-07-01T12:52:06.914Z,23.62
2023-07-01T12:54:35.347Z,23.74
2023-07-01T12:57:04.551Z,24.05
2023-07-01T12:59:32.950Z,24.21
2023-07-01T13:02:01.248Z,23.87
2023-07-01T13:04:30.712Z,23.92
2023-07-01T13:06:59.109Z,23.84
2023-07-01T13:09:42.702Z,23.73
2023-07-01T13:12:14.378Z,23.79
2023-07-01T13:14:42.734Z,23.85
2023-07-01T13:17:11.413Z,23.96
2023-07-01T13:19:39.897Z,24.03
2023-07-01T13:22:09.622Z,24.03
2023-07-01T13:24:42.632Z,23.86
2023-07-01T13:27:16.004Z,23.84
2023-07-01T13:29:47.392Z,23.74
2023-07-01T13:32:16.036Z,23.86
2023-07-01T13:34:47.144Z,23.95
2023-07-01T13:37:21.891Z,23.99
2023-07-01T13:39:52.003Z,23.93
2023-07-01T13:42:26.544Z,24.00
2023-07-01T13:44:57.473Z,23.99
2023-07-01T13:47:30.105Z,23.72
2023-07-01T13:49:58.584Z,23.37
2023-07-01T13:52:27.200Z,23.36
2023-07-01T13:54:55.813Z,23.63
2023-07-01T13:57:30.133Z,23.77
2023-07-01T14:00:01.842Z,23.71
2023-07-01T14:02:41.179Z,23.48
2023-07-01T14:05:17.145Z,23.38
2023-07-01T14:07:45.857Z,23.41
2023-07-01T14:10:30.484Z,23.41
2023-07-01T14:12:59.902Z,23.39
2023-07-01T14:15:37.044Z,23.42
2023-07-01T14:18:14.861Z,23.43
2023-07-01T14:20:56.976Z,23.35
2023-07-01T14:23:33.580Z,23.16
2023-07-01T14:26:04.163Z,23.14
2023-07-01T14:28:33.203Z,23.17
2023-07-01T14:31:12.847Z,23.00
2023-07-01T14:33:51.931Z,22.95
2023-07-01T14:36:27.601Z,23.03
2023-07-01T14:38:56.880Z,23.07
2023-07-01T14:41:27.722Z,23.17
2023-07-01T14:44:01.927Z,23.27
2023-07-01T14:46:35.407Z,23.24
2023-07-01T14:49:07.510Z,23.23
2023-07-01T14:51:40.012Z,23.17
2023-07-01T14:54:08.497Z,22.98
2023-07-01T14:56:37.046Z,22.92
2023-07-01T14:59:05.295Z,22.90
2023-07-01T15:01:33.749Z,22.85
2023-07-01T15:04:03.043Z,22.88
2023-07-01T15:06:31.516Z,22.92
2023-07-01T15:08:59.944Z,22.97
2023-07-01T15:11:28.875Z,23.00
2023-07-01T15:13:57.964Z,23.03
2023-07-01T15:16:27.546Z,23.01
2023-07-01T15:18:55.780Z,23.02
2023-07-01T15:21:24.660Z,23.03
2023-07-01T15:24:06.409Z,23.06
2023-07-01T15:26:34.805Z,23.05
2023-07-01T15:29:03.414Z,23.02
2023-07-01T15:31:31.744Z,23.08
2023-07-01T15:34:00.078Z,23.08
2023-07-01T15:36:28.898Z,23.05
2023-07-01T15:38:57.337Z,23.06
2023-07-01T15:41:41.548Z,23.05
2023-07-01T15:44:14.640Z,22.97
2023-07-01T15:46:43.222Z,22.92
2023-07-01T15:49:11.629Z,22.85
2023-07-01T15:51:41.659Z,22.82
2023-07-01T15:54:12.588Z,22.80
2023-07-01T15:56:41.301Z,22.75
2023-07-01T15:59:10.898Z,22.70
2023-07-01T16:01:39.893Z,22.67
2023-07-01T16:04:11.316Z,22.67
2023-07-01T16:06:39.821Z,22.67
2023-07-01T16:09:43.235Z,22.69
2023-07-01T16:12:33.463Z,22.68
2023-07-01T16:15:09.111Z,22.63
2023-07-01T16:17:44.177Z,22.62
2023-07-01T16:20:32.924Z,22.59
2023-07-01T16:23:11.758Z,22.61
2023-07-01T16:25:40.882Z,22.61
2023-07-01T16:28:09.506Z,22.63
2023-07-01T16:30:41.396Z,22.62
2023-07-01T16:33:22.457Z,22.59
2023-07-01T16:35:53.540Z,22.55
2023-07-01T16:38:30.629Z,22.52
2023-07-01T16:40:59.576Z,22.49
2023-07-01T16:43:41.227Z,22.47
2023-07-01T16:46:13.657Z,22.45
2023-07-01T16:48:53.377Z,22.44
2023-07-01T16:51:22.403Z,22.44
2023-07-01T16:54:18.392Z,22.42
2023-07-01T16:56:57.683Z,22.40
2023-07-01T16:59:47.196Z,22.37
2023-07-01T17:02:32.094Z,22.37
2023-07-01T17:05:22.993Z,22.35
2023-07-01T17:07:51.345Z,22.36
2023-07-01T17:10:38.599Z,22.36
2023-07-01T17:13:20.509Z,22.37
2023-07-01T17:15:53.597Z,22.36
2023-07-01T17:18:27.529Z,22.37
2023-07-01T17:20:57.228Z,22.34
2023-07-01T17:23:26.242Z,22.32
2023-07-01T17:25:55.622Z,22.32
2023-07-01T17:28:23.860Z,22.29
2023-07-01T17:30:52.688Z,22.25
2023-07-01T17:33:21.216Z,22.22
2023-07-01T17:35:49.980Z,22.20
2023-07-01T17:38:18.661Z,22.18
2023-07-01T17:40:46.944Z,22.16
2023-07-01T17:43:15.748Z,22.12
2023-07-01T17:45:44.051Z,22.07
2023-07-01T17:48:12.786Z,22.02
2023-07-01T17:50:41.437Z,21.97
2023-07-01T17:53:09.820Z,21.94
2023-07-01T17:55:38.244Z,21.90
2023-07-01T17:58:08.022Z,21.87
2023-07-01T18:00:36.720Z,21.82
2023-07-01T18:03:05.434Z,21.77
2023-07-01T18:05:37.167Z,21.72
2023-07-01T18:08:32.197Z,21.69
2023-07-01T18:11:00.456Z,21.66
2023-07-01T18:13:32.552Z,21.65
2023-07-01T18:16:04.423Z,21.63
2023-07-01T18:18:55.963Z,21.60
2023-07-01T18:21:46.213Z,21.58
2023-07-01T18:24:19.008Z,21.55
2023-07-01T18:26:49.704Z,21.53
2023-07-01T18:29:21.089Z,21.52
2023-07-01T18:31:49.428Z,21.49
2023-07-01T18:34:17.645Z,21.47
2023-07-01T18:36:46.288Z,21.45
2023-07-01T18:39:15.185Z,21.43
2023-07-01T18:41:43.688Z,21.41
2023-07-01T18:44:12.072Z,21.39
2023-07-01T18:46:40.996Z,21.37
2023-07-01T18:49:09.433Z,21.35
2023-07-01T18:51:37.712Z,21.31
2023-07-01T18:54:06.037Z,21.26
2023-07-01T18:56:36.234Z,21.23
2023-07-01T18:59:07.261Z,21.20
2023-07-01T19:01:36.518Z,21.17
2023-07-01T19:04:05.249Z,21.15
2023-07-01T19:06:34.062Z,21.10
2023-07-01T19:09:02.401Z,21.08
2023-07-01T19:11:30.848Z,21.05
2023-07-01T19:13:59.329Z,21.01
2023-07-01T19:16:31.091Z,20.98
2023-07-01T19:19:00.194Z,20.95
2023-07-01T19:21:28.651Z,20.90
2023-07-01T19:23:57.359Z,20.87
2023-07-01T19:26:27.445Z,20.84
2023-07-01T19:28:55.816Z,20.78
2023-07-01T19:31:24.726Z,20.75
2023-07-01T19:33:53.117Z,20.74
2023-07-01T19:36:21.626Z,20.74
2023-07-01T19:38:51.821Z,20.71
2023-07-01T19:41:20.449Z,20.69
2023-07-01T19:43:52.180Z,20.69
2023-07-01T19:46:20.824Z,20.68
2023-07-01T19:48:51.704Z,20.67
2023-07-01T19:51:20.590Z,20.64
2023-07-01T19:53:49.688Z,20.62
2023-07-01T19:56:18.171Z,20.60
2023-07-01T19:58:46.601Z,20.56
2023-07-01T20:01:14.904Z,20.53
2023-07-01T20:03:43.389Z,20.50
2023-07-01T20:06:12.035Z,20.48
2023-07-01T20:08:43.310Z,20.45
2023-07-01T20:11:11.728Z,20.43
2023-07-01T20:13:40.176Z,20.40
2023-07-01T20:16:08.805Z,20.38
2023-07-01T20:18:37.575Z,20.37
2023-07-01T20:21:05.830Z,20.34
2023-07-01T20:23:36.705Z,20.32
2023-07-01T20:26:07.834Z,20.29
2023-07-01T20:28:38.758Z,20.27
2023-07-01T20:31:10.130Z,20.24
2023-07-01T20:33:41.338Z,20.23
2023-07-01T20:36:09.895Z,20.21
2023-07-01T20:38:38.330Z,20.20
2023-07-01T20:41:06.928Z,20.17
2023-07-01T20:43:35.971Z,20.14
2023-07-01T20:46:04.240Z,20.10
2023-07-01T20:48:33.010Z,20.07
2023-07-01T20:51:03.826Z,20.05
2023-07-01T20:53:32.681Z,20.13
2023-07-01T20:56:01.589Z,20.22
2023-07-01T20:58:30.031Z,20.29
2023-07-01T21:00:58.400Z,20.34
2023-07-01T21:03:26.856Z,20.33
2023-07-01T21:06:04.741Z,20.27
2023-07-01T21:08:33.702Z,20.21
2023-07-01T21:11:02.637Z,20.13
2023-07-01T21:13:31.456Z,20.06
2023-07-01T21:16:00.160Z,20.03
2023-07-01T21:18:31.707Z,19.98
2023-07-01T21:21:02.736Z,19.94
2023-07-01T21:23:33.773Z,19.89
2023-07-01T21:26:04.491Z,19.86
2023-07-01T21:28:38.880Z,19.82
2023-07-01T21:31:10.324Z,19.79
2023-07-01T21:33:39.362Z,19.76
2023-07-01T21:36:08.296Z,19.72
2023-07-01T21:38:36.642Z,19.69
2023-07-01T21:41:05.116Z,19.67
2023-07-01T21:43:35.588Z,19.65
2023-07-01T21:46:07.484Z,19.63
2023-07-01T21:48:37.919Z,19.61
2023-07-01T21:51:11.167Z,19.57
2023-07-01T21:53:45.423Z,19.52
2023-07-01T21:56:15.817Z,19.48
2023-07-01T21:58:47.252Z,19.43
2023-07-01T22:01:37.596Z,19.39
2023-07-01T22:04:07.812Z,19.34
2023-07-01T22:06:49.098Z,19.31
2023-07-01T22:09:18.300Z,19.27
2023-07-01T22:11:46.798Z,19.26
2023-07-01T22:14:18.253Z,19.22
2023-07-01T22:17:09.766Z,19.18
2023-07-01T22:20:01.388Z,19.13
2023-07-01T22:22:33.516Z,19.09
2023-07-01T22:25:01.975Z,19.05
2023-07-01T22:27:30.553Z,19.01
2023-07-01T22:29:58.937Z,18.97
2023-07-01T22:32:27.964Z,18.94
2023-07-01T22:34:56.570Z,18.90
2023-07-01T22:37:35.383Z,18.86
2023-07-01T22:40:03.784Z,18.84
2023-07-01T22:42:32.459Z,18.83
2023-07-01T22:45:04.504Z,18.79
2023-07-01T22:47:33.454Z,18.76
2023-07-01T22:50:22.707Z,18.69
2023-07-01T22:52:52.366Z,18.63
2023-07-01T22:55:22.181Z,18.58
2023-07-01T22:58:14.332Z,18.53
2023-07-01T23:00:44.738Z,18.45
2023-07-01T23:03:28.423Z,18.39
2023-07-01T23:05:57.399Z,18.34
2023-07-01T23:08:46.699Z,18.25
2023-07-01T23:11:15.596Z,18.19
2023-07-01T23:13:44.573Z,18.14
2023-07-01T23:16:13.342Z,18.10
2023-07-01T23:18:42.038Z,18.05
2023-07-01T23:21:10.358Z,17.91
2023-07-01T23:23:39.019Z,17.74
2023-07-01T23:26:07.729Z,17.56
2023-07-01T23:28:36.195Z,17.44
2023-07-01T23:31:05.140Z,17.38
2023-07-01T23:33:43.323Z,17.29
2023-07-01T23:36:13.922Z,17.19
2023-07-01T23:38:42.306Z,17.13
2023-07-01T23:41:13.896Z,17.08
2023-07-01T23:43:42.133Z,17.07
2023-07-01T23:46:12.947Z,17.03
2023-07-01T23:48:43.320Z,17.01
2023-07-01T23:51:12.822Z,16.99
2023-07-01T23:53:41.262Z,17.00
2023-07-01T23:56:13.135Z,16.98
2023-07-01T23:58:41.540Z,16.95
